Terminal Aerodrome Forecast
Issued by NWS

Home | Current Version | Previous Version | Text Only | Print | Product List | Glossary On
Versions: 1 2 3 4 5 6 7 8 9 10 11 12 13 14 15 16 17 18 19 20 21
000
FTUS46 KSTO 180658 AAA
TAFSAC
TAF AMD
KSAC 180658Z 1807/1906 VRB04KT 4SM BR BKN100
     FM180900 14004KT 1 1/2SM BR OVC003
     FM181100 15005KT 1/4SM FG OVC001
     FM181700 16013G20KT 1/2SM FG OVC004
     FM182000 16018G26KT 3SM -RA BR OVC007
     FM190000 16024G32KT 3SM -RA BR OVC015=

USA.gov is the U.S. government's official web portal to all federal, state and local government web resources and services.